sensor_id;sensor_type;location;lat;lon;timestamp;temperature;humidity
75685;HTU21D;64298;46.050;38.164;2022-11-20T00:01:25;9.71;82.84
75685;HTU21D;64298;46.050;38.164;2022-11-20T00:03:53;9.74;82.73
75685;HTU21D;64298;46.050;38.164;2022-11-20T00:06:20;9.74;82.55
75685;HTU21D;64298;46.050;38.164;2022-11-20T00:08:48;9.72;82.48
75685;HTU21D;64298;46.050;38.164;2022-11-20T00:11:21;9.74;82.51
75685;HTU21D;64298;46.050;38.164;2022-11-20T00:13:48;9.76;82.28
75685;HTU21D;64298;46.050;38.164;2022-11-20T00:16:17;9.74;82.30
75685;HTU21D;64298;46.050;38.164;2022-11-20T00:18:44;9.70;82.43
75685;HTU21D;64298;46.050;38.164;2022-11-20T00:21:12;9.68;82.25
75685;HTU21D;64298;46.050;38.164;2022-11-20T00:23:57;9.67;82.13
75685;HTU21D;64298;46.050;38.164;2022-11-20T00:26:25;9.66;81.99
75685;HTU21D;64298;46.050;38.164;2022-11-20T00:28:54;9.64;82.01
75685;HTU21D;64298;46.050;38.164;2022-11-20T00:31:21;9.63;82.07
75685;HTU21D;64298;46.050;38.164;2022-11-20T00:33:47;9.64;81.94
75685;HTU21D;64298;46.050;38.164;2022-11-20T00:36:15;9.62;81.76
75685;HTU21D;64298;46.050;38.164;2022-11-20T00:38:42;9.59;81.64
75685;HTU21D;64298;46.050;38.164;2022-11-20T00:41:12;9.56;81.68
75685;HTU21D;64298;46.050;38.164;2022-11-20T00:43:38;9.56;81.75
75685;HTU21D;64298;46.050;38.164;2022-11-20T00:46:10;9.56;81.78
75685;HTU21D;64298;46.050;38.164;2022-11-20T00:48:36;9.57;81.57
75685;HTU21D;64298;46.050;38.164;2022-11-20T00:51:02;9.57;81.65
75685;HTU21D;64298;46.050;38.164;2022-11-20T00:53:28;9.60;81.72
75685;HTU21D;64298;46.050;38.164;2022-11-20T00:56:04;9.64;81.73
75685;HTU21D;64298;46.050;38.164;2022-11-20T00:58:32;9.67;81.65
75685;HTU21D;64298;46.050;38.164;2022-11-20T01:01:08;9.66;81.39
75685;HTU21D;64298;46.050;38.164;2022-11-20T01:03:54;9.66;81.43
75685;HTU21D;64298;46.050;38.164;2022-11-20T01:06:23;9.65;81.41
75685;HTU21D;64298;46.050;38.164;2022-11-20T01:08:50;9.65;81.47
75685;HTU21D;64298;46.050;38.164;2022-11-20T01:11:26;9.64;81.33
75685;HTU21D;64298;46.050;38.164;2022-11-20T01:13:53;9.61;81.12
75685;HTU21D;64298;46.050;38.164;2022-11-20T01:16:25;9.57;80.98
75685;HTU21D;64298;46.050;38.164;2022-11-20T01:18:53;9.54;81.04
75685;HTU21D;64298;46.050;38.164;2022-11-20T01:21:28;9.53;81.24
75685;HTU21D;64298;46.050;38.164;2022-11-20T01:23:56;9.52;81.23
75685;HTU21D;64298;46.050;38.164;2022-11-20T01:26:24;9.53;81.30
75685;HTU21D;64298;46.050;38.164;2022-11-20T01:28:50;9.53;81.20
75685;HTU21D;64298;46.050;38.164;2022-11-20T01:31:22;9.53;81.23
75685;HTU21D;64298;46.050;38.164;2022-11-20T01:33:51;9.51;81.31
75685;HTU21D;64298;46.050;38.164;2022-11-20T01:36:18;9.56;81.39
75685;HTU21D;64298;46.050;38.164;2022-11-20T01:38:44;9.60;81.44
75685;HTU21D;64298;46.050;38.164;2022-11-20T01:41:12;9.61;81.25
75685;HTU21D;64298;46.050;38.164;2022-11-20T01:44:19;9.59;81.13
75685;HTU21D;64298;46.050;38.164;2022-11-20T01:46:56;9.56;81.32
75685;HTU21D;64298;46.050;38.164;2022-11-20T01:49:29;9.61;81.38
75685;HTU21D;64298;46.050;38.164;2022-11-20T01:52:01;9.64;81.31
75685;HTU21D;64298;46.050;38.164;2022-11-20T01:54:35;9.67;81.32
75685;HTU21D;64298;46.050;38.164;2022-11-20T01:57:03;9.67;81.23
75685;HTU21D;64298;46.050;38.164;2022-11-20T01:59:29;9.64;81.11
75685;HTU21D;64298;46.050;38.164;2022-11-20T02:01:56;9.64;81.25
75685;HTU21D;64298;46.050;38.164;2022-11-20T02:04:23;9.66;81.23
75685;HTU21D;64298;46.050;38.164;2022-11-20T02:06:53;9.66;81.02
75685;HTU21D;64298;46.050;38.164;2022-11-20T02:09:39;9.66;81.04
75685;HTU21D;64298;46.050;38.164;2022-11-20T02:12:05;9.66;81.10
75685;HTU21D;64298;46.050;38.164;2022-11-20T02:14:51;9.70;81.07
75685;HTU21D;64298;46.050;38.164;2022-11-20T02:17:17;9.69;81.12
75685;HTU21D;64298;46.050;38.164;2022-11-20T02:19:43;9.70;81.21
75685;HTU21D;64298;46.050;38.164;2022-11-20T02:22:17;9.70;81.08
75685;HTU21D;64298;46.050;38.164;2022-11-20T02:24:46;9.72;81.07
75685;HTU21D;64298;46.050;38.164;2022-11-20T02:27:14;9.74;81.07
75685;HTU21D;64298;46.050;38.164;2022-11-20T02:29:51;9.78;81.09
75685;HTU21D;64298;46.050;38.164;2022-11-20T02:32:30;9.81;80.99
75685;HTU21D;64298;46.050;38.164;2022-11-20T02:34:56;9.83;80.94
75685;HTU21D;64298;46.050;38.164;2022-11-20T02:37:23;9.84;80.85
75685;HTU21D;64298;46.050;38.164;2022-11-20T02:39:52;9.86;80.85
75685;HTU21D;64298;46.050;38.164;2022-11-20T02:42:18;9.88;80.82
75685;HTU21D;64298;46.050;38.164;2022-11-20T02:44:44;9.89;80.78
75685;HTU21D;64298;46.050;38.164;2022-11-20T02:47:10;9.91;80.76
75685;HTU21D;64298;46.050;38.164;2022-11-20T02:49:36;9.93;80.74
75685;HTU21D;64298;46.050;38.164;2022-11-20T02:52:02;9.92;80.72
75685;HTU21D;64298;46.050;38.164;2022-11-20T02:54:28;9.92;80.65
75685;HTU21D;64298;46.050;38.164;2022-11-20T02:56:54;9.90;80.55
75685;HTU21D;64298;46.050;38.164;2022-11-20T02:59:20;9.89;80.56
75685;HTU21D;64298;46.050;38.164;2022-11-20T03:01:46;9.85;80.55
75685;HTU21D;64298;46.050;38.164;2022-11-20T03:04:12;9.83;80.59
75685;HTU21D;64298;46.050;38.164;2022-11-20T03:06:38;9.83;80.54
75685;HTU21D;64298;46.050;38.164;2022-11-20T03:09:04;9.83;80.56
75685;HTU21D;64298;46.050;38.164;2022-11-20T03:11:30;9.83;80.56
75685;HTU21D;64298;46.050;38.164;2022-11-20T03:13:56;9.84;80.55
75685;HTU21D;64298;46.050;38.164;2022-11-20T03:16:23;9.83;80.56
75685;HTU21D;64298;46.050;38.164;2022-11-20T03:18:51;9.84;80.57
75685;HTU21D;64298;46.050;38.164;2022-11-20T03:21:18;9.83;80.60
75685;HTU21D;64298;46.050;38.164;2022-11-20T03:23:44;9.84;80.59
75685;HTU21D;64298;46.050;38.164;2022-11-20T03:26:19;9.84;80.59
75685;HTU21D;64298;46.050;38.164;2022-11-20T03:28:48;9.82;80.50
75685;HTU21D;64298;46.050;38.164;2022-11-20T03:31:16;9.82;80.56
75685;HTU21D;64298;46.050;38.164;2022-11-20T03:33:42;9.83;80.57
75685;HTU21D;64298;46.050;38.164;2022-11-20T03:36:11;9.80;80.55
75685;HTU21D;64298;46.050;38.164;2022-11-20T03:38:38;9.80;80.56
75685;HTU21D;64298;46.050;38.164;2022-11-20T03:41:09;9.78;80.57
75685;HTU21D;64298;46.050;38.164;2022-11-20T03:43:36;9.76;80.56
75685;HTU21D;64298;46.050;38.164;2022-11-20T03:46:03;9.75;80.59
75685;HTU21D;64298;46.050;38.164;2022-11-20T03:48:29;9.72;80.56
75685;HTU21D;64298;46.050;38.164;2022-11-20T03:53:39;9.67;80.50
75685;HTU21D;64298;46.050;38.164;2022-11-20T03:56:07;9.62;80.53
75685;HTU21D;64298;46.050;38.164;2022-11-20T03:58:34;9.56;80.61
75685;HTU21D;64298;46.050;38.164;2022-11-20T04:01:10;9.50;80.69
75685;HTU21D;64298;46.050;38.164;2022-11-20T04:03:37;9.44;80.72
75685;HTU21D;64298;46.050;38.164;2022-11-20T04:06:06;9.45;80.88
75685;HTU21D;64298;46.050;38.164;2022-11-20T04:08:32;9.44;80.89
75685;HTU21D;64298;46.050;38.164;2022-11-20T04:11:28;9.44;80.97
75685;HTU21D;64298;46.050;38.164;2022-11-20T04:14:00;9.42;80.81
75685;HTU21D;64298;46.050;38.164;2022-11-20T04:16:29;9.40;80.85
75685;HTU21D;64298;46.050;38.164;2022-11-20T04:18:58;9.38;80.87
75685;HTU21D;64298;46.050;38.164;2022-11-20T04:21:25;9.33;80.82
75685;HTU21D;64298;46.050;38.164;2022-11-20T04:23:52;9.31;80.89
75685;HTU21D;64298;46.050;38.164;2022-11-20T04:26:19;9.30;80.96
75685;HTU21D;64298;46.050;38.164;2022-11-20T04:28:45;9.31;80.93
75685;HTU21D;64298;46.050;38.164;2022-11-20T04:31:16;9.31;80.95
75685;HTU21D;64298;46.050;38.164;2022-11-20T04:33:42;9.33;80.96
75685;HTU21D;64298;46.050;38.164;2022-11-20T04:36:22;9.34;80.98
75685;HTU21D;64298;46.050;38.164;2022-11-20T04:38:58;9.35;80.92
75685;HTU21D;64298;46.050;38.164;2022-11-20T04:41:27;9.35;80.90
75685;HTU21D;64298;46.050;38.164;2022-11-20T04:43:56;9.34;80.76
75685;HTU21D;64298;46.050;38.164;2022-11-20T04:46:28;9.30;80.81
75685;HTU21D;64298;46.050;38.164;2022-11-20T04:48:55;9.29;80.87
75685;HTU21D;64298;46.050;38.164;2022-11-20T04:51:21;9.29;80.91
75685;HTU21D;64298;46.050;38.164;2022-11-20T04:53:48;9.30;80.91
75685;HTU21D;64298;46.050;38.164;2022-11-20T04:56:14;9.32;80.89
75685;HTU21D;64298;46.050;38.164;2022-11-20T04:58:40;9.31;80.89
75685;HTU21D;64298;46.050;38.164;2022-11-20T05:01:15;9.31;80.85
75685;HTU21D;64298;46.050;38.164;2022-11-20T05:03:43;9.30;80.85
75685;HTU21D;64298;46.050;38.164;2022-11-20T05:06:11;9.31;80.91
75685;HTU21D;64298;46.050;38.164;2022-11-20T05:08:37;9.31;80.85
75685;HTU21D;64298;46.050;38.164;2022-11-20T05:11:15;9.26;80.76
75685;HTU21D;64298;46.050;38.164;2022-11-20T05:13:42;9.25;80.86
75685;HTU21D;64298;46.050;38.164;2022-11-20T05:16:10;9.25;80.91
75685;HTU21D;64298;46.050;38.164;2022-11-20T05:18:37;9.26;80.94
75685;HTU21D;64298;46.050;38.164;2022-11-20T05:21:03;9.27;80.95
75685;HTU21D;64298;46.050;38.164;2022-11-20T05:23:31;9.31;80.94
75685;HTU21D;64298;46.050;38.164;2022-11-20T05:25:57;9.30;80.88
75685;HTU21D;64298;46.050;38.164;2022-11-20T05:28:24;9.31;80.91
75685;HTU21D;64298;46.050;38.164;2022-11-20T05:30:50;9.30;80.89
75685;HTU21D;64298;46.050;38.164;2022-11-20T05:33:35;9.34;80.89
75685;HTU21D;64298;46.050;38.164;2022-11-20T05:36:05;9.33;80.91
75685;HTU21D;64298;46.050;38.164;2022-11-20T05:38:31;9.33;80.91
75685;HTU21D;64298;46.050;38.164;2022-11-20T05:41:23;9.35;80.99
75685;HTU21D;64298;46.050;38.164;2022-11-20T05:43:50;9.37;80.91
75685;HTU21D;64298;46.050;38.164;2022-11-20T05:46:18;9.40;80.95
75685;HTU21D;64298;46.050;38.164;2022-11-20T05:48:45;9.41;80.94
75685;HTU21D;64298;46.050;38.164;2022-11-20T05:51:15;9.46;80.85
75685;HTU21D;64298;46.050;38.164;2022-11-20T05:53:41;9.47;80.83
75685;HTU21D;64298;46.050;38.164;2022-11-20T05:56:10;9.48;80.83
75685;HTU21D;64298;46.050;38.164;2022-11-20T05:58:37;9.49;80.84
75685;HTU21D;64298;46.050;38.164;2022-11-20T06:01:24;9.50;80.88
75685;HTU21D;64298;46.050;38.164;2022-11-20T06:03:52;9.52;80.83
75685;HTU21D;64298;46.050;38.164;2022-11-20T06:06:19;9.51;80.81
75685;HTU21D;64298;46.050;38.164;2022-11-20T06:08:45;9.50;80.88
75685;HTU21D;64298;46.050;38.164;2022-11-20T06:11:12;9.50;80.97
75685;HTU21D;64298;46.050;38.164;2022-11-20T06:13:57;9.51;80.96
75685;HTU21D;64298;46.050;38.164;2022-11-20T06:16:23;9.51;80.98
75685;HTU21D;64298;46.050;38.164;2022-11-20T06:18:49;9.50;81.00
75685;HTU21D;64298;46.050;38.164;2022-11-20T06:21:18;9.54;81.04
75685;HTU21D;64298;46.050;38.164;2022-11-20T06:23:45;9.59;81.05
75685;HTU21D;64298;46.050;38.164;2022-11-20T06:26:14;9.61;81.02
75685;HTU21D;64298;46.050;38.164;2022-11-20T06:28:40;9.61;81.04
75685;HTU21D;64298;46.050;38.164;2022-11-20T06:31:07;9.61;81.10
75685;HTU21D;64298;46.050;38.164;2022-11-20T06:33:33;9.62;81.13
75685;HTU21D;64298;46.050;38.164;2022-11-20T06:36:00;9.64;81.15
75685;HTU21D;64298;46.050;38.164;2022-11-20T06:38:27;9.67;81.16
75685;HTU21D;64298;46.050;38.164;2022-11-20T06:40:54;9.71;81.13
75685;HTU21D;64298;46.050;38.164;2022-11-20T06:43:21;9.74;81.14
75685;HTU21D;64298;46.050;38.164;2022-11-20T06:45:54;9.76;81.08
75685;HTU21D;64298;46.050;38.164;2022-11-20T06:48:21;9.75;81.07
75685;HTU21D;64298;46.050;38.164;2022-11-20T06:50:47;9.76;81.13
75685;HTU21D;64298;46.050;38.164;2022-11-20T06:53:13;9.76;81.15
75685;HTU21D;64298;46.050;38.164;2022-11-20T06:55:43;9.77;81.17
75685;HTU21D;64298;46.050;38.164;2022-11-20T06:58:10;9.78;81.13
75685;HTU21D;64298;46.050;38.164;2022-11-20T07:00:36;9.76;81.22
75685;HTU21D;64298;46.050;38.164;2022-11-20T07:03:03;9.75;81.32
75685;HTU21D;64298;46.050;38.164;2022-11-20T07:05:29;9.72;81.46
75685;HTU21D;64298;46.050;38.164;2022-11-20T07:07:56;9.71;81.60
75685;HTU21D;64298;46.050;38.164;2022-11-20T07:10:22;9.70;81.65
75685;HTU21D;64298;46.050;38.164;2022-11-20T07:12:54;9.68;81.71
75685;HTU21D;64298;46.050;38.164;2022-11-20T07:15:21;9.69;81.74
75685;HTU21D;64298;46.050;38.164;2022-11-20T07:17:48;9.66;81.85
75685;HTU21D;64298;46.050;38.164;2022-11-20T07:20:14;9.66;81.97
75685;HTU21D;64298;46.050;38.164;2022-11-20T07:22:41;9.64;82.06
75685;HTU21D;64298;46.050;38.164;2022-11-20T07:25:08;9.62;82.14
75685;HTU21D;64298;46.050;38.164;2022-11-20T07:27:34;9.60;82.32
75685;HTU21D;64298;46.050;38.164;2022-11-20T07:30:00;9.55;82.56
75685;HTU21D;64298;46.050;38.164;2022-11-20T07:32:27;9.52;82.68
75685;HTU21D;64298;46.050;38.164;2022-11-20T07:34:53;9.53;82.69
75685;HTU21D;64298;46.050;38.164;2022-11-20T07:37:19;9.54;82.75
75685;HTU21D;64298;46.050;38.164;2022-11-20T07:39:45;9.55;82.79
75685;HTU21D;64298;46.050;38.164;2022-11-20T07:42:10;9.54;82.83
75685;HTU21D;64298;46.050;38.164;2022-11-20T07:44:38;9.54;82.99
75685;HTU21D;64298;46.050;38.164;2022-11-20T07:47:04;9.54;82.98
75685;HTU21D;64298;46.050;38.164;2022-11-20T07:49:30;9.54;83.04
75685;HTU21D;64298;46.050;38.164;2022-11-20T07:51:56;9.55;83.10
75685;HTU21D;64298;46.050;38.164;2022-11-20T07:54:22;9.54;83.16
75685;HTU21D;64298;46.050;38.164;2022-11-20T07:56:49;9.56;83.24
75685;HTU21D;64298;46.050;38.164;2022-11-20T07:59:15;9.55;83.27
75685;HTU21D;64298;46.050;38.164;2022-11-20T08:01:42;9.56;83.45
75685;HTU21D;64298;46.050;38.164;2022-11-20T08:04:09;9.55;83.45
75685;HTU21D;64298;46.050;38.164;2022-11-20T08:06:36;9.55;83.52
75685;HTU21D;64298;46.050;38.164;2022-11-20T08:09:02;9.55;83.64
75685;HTU21D;64298;46.050;38.164;2022-11-20T08:11:28;9.54;83.74
75685;HTU21D;64298;46.050;38.164;2022-11-20T08:14:15;9.56;83.76
75685;HTU21D;64298;46.050;38.164;2022-11-20T08:16:43;9.56;83.85
75685;HTU21D;64298;46.050;38.164;2022-11-20T08:19:10;9.57;83.86
75685;HTU21D;64298;46.050;38.164;2022-11-20T08:21:36;9.59;83.87
75685;HTU21D;64298;46.050;38.164;2022-11-20T08:24:03;9.59;83.92
75685;HTU21D;64298;46.050;38.164;2022-11-20T08:26:29;9.60;83.99
75685;HTU21D;64298;46.050;38.164;2022-11-20T08:28:56;9.61;83.94
75685;HTU21D;64298;46.050;38.164;2022-11-20T08:31:23;9.63;83.97
75685;HTU21D;64298;46.050;38.164;2022-11-20T08:33:50;9.65;83.96
75685;HTU21D;64298;46.050;38.164;2022-11-20T08:36:16;9.67;84.00
75685;HTU21D;64298;46.050;38.164;2022-11-20T08:38:47;9.68;84.03
75685;HTU21D;64298;46.050;38.164;2022-11-20T08:41:14;9.69;84.07
75685;HTU21D;64298;46.050;38.164;2022-11-20T08:43:59;9.74;84.05
75685;HTU21D;64298;46.050;38.164;2022-11-20T08:46:30;9.75;84.14
75685;HTU21D;64298;46.050;38.164;2022-11-20T08:48:58;9.77;84.18
75685;HTU21D;64298;46.050;38.164;2022-11-20T08:51:24;9.78;84.13
75685;HTU21D;64298;46.050;38.164;2022-11-20T08:53:50;9.80;84.15
75685;HTU21D;64298;46.050;38.164;2022-11-20T08:56:17;9.80;84.16
75685;HTU21D;64298;46.050;38.164;2022-11-20T08:58:43;9.82;84.21
75685;HTU21D;64298;46.050;38.164;2022-11-20T09:01:10;9.83;84.34
75685;HTU21D;64298;46.050;38.164;2022-11-20T09:03:36;9.84;84.45
75685;HTU21D;64298;46.050;38.164;2022-11-20T09:06:04;9.88;84.49
75685;HTU21D;64298;46.050;38.164;2022-11-20T09:08:32;9.90;84.52
75685;HTU21D;64298;46.050;38.164;2022-11-20T09:10:58;9.95;84.48
75685;HTU21D;64298;46.050;38.164;2022-11-20T09:13:27;10.00;84.51
75685;HTU21D;64298;46.050;38.164;2022-11-20T09:15:58;10.08;84.52
75685;HTU21D;64298;46.050;38.164;2022-11-20T09:18:25;10.15;84.49
75685;HTU21D;64298;46.050;38.164;2022-11-20T09:20:55;10.25;84.54
75685;HTU21D;64298;46.050;38.164;2022-11-20T09:23:21;10.34;84.48
75685;HTU21D;64298;46.050;38.164;2022-11-20T09:25:47;10.42;84.55
75685;HTU21D;64298;46.050;38.164;2022-11-20T09:28:13;10.50;84.48
75685;HTU21D;64298;46.050;38.164;2022-11-20T09:30:39;10.58;84.43
75685;HTU21D;64298;46.050;38.164;2022-11-20T09:33:06;10.65;84.40
75685;HTU21D;64298;46.050;38.164;2022-11-20T09:35:33;10.77;84.48
75685;HTU21D;64298;46.050;38.164;2022-11-20T09:38:07;10.93;84.22
75685;HTU21D;64298;46.050;38.164;2022-11-20T09:40:34;11.09;84.10
75685;HTU21D;64298;46.050;38.164;2022-11-20T09:43:07;11.29;83.75
75685;HTU21D;64298;46.050;38.164;2022-11-20T09:51:20;11.78;83.12
75685;HTU21D;64298;46.050;38.164;2022-11-20T09:54:18;12.04;82.63
75685;HTU21D;64298;46.050;38.164;2022-11-20T09:56:50;12.28;82.03
75685;HTU21D;64298;46.050;38.164;2022-11-20T09:59:35;12.46;81.84
75685;HTU21D;64298;46.050;38.164;2022-11-20T10:02:16;12.69;81.33
75685;HTU21D;64298;46.050;38.164;2022-11-20T10:10:33;12.97;80.66
75685;HTU21D;64298;46.050;38.164;2022-11-20T10:15:45;12.96;80.54
75685;HTU21D;64298;46.050;38.164;2022-11-20T10:26:16;12.60;81.21
75685;HTU21D;64298;46.050;38.164;2022-11-20T10:29:06;12.53;81.43
75685;HTU21D;64298;46.050;38.164;2022-11-20T10:31:39;12.44;81.63
75685;HTU21D;64298;46.050;38.164;2022-11-20T10:36:58;12.31;81.99
75685;HTU21D;64298;46.050;38.164;2022-11-20T10:42:17;12.23;82.26
75685;HTU21D;64298;46.050;38.164;2022-11-20T10:48:10;12.23;82.56
75685;HTU21D;64298;46.050;38.164;2022-11-20T10:50:39;12.32;82.51
75685;HTU21D;64298;46.050;38.164;2022-11-20T10:53:32;12.43;82.39
75685;HTU21D;64298;46.050;38.164;2022-11-20T10:56:11;12.52;82.17
75685;HTU21D;64298;46.050;38.164;2022-11-20T10:59:02;12.64;82.02
75685;HTU21D;64298;46.050;38.164;2022-11-20T11:01:29;12.71;81.93
75685;HTU21D;64298;46.050;38.164;2022-11-20T11:03:55;12.74;82.01
75685;HTU21D;64298;46.050;38.164;2022-11-20T11:06:42;12.77;82.13
75685;HTU21D;64298;46.050;38.164;2022-11-20T11:09:16;12.94;81.96
75685;HTU21D;64298;46.050;38.164;2022-11-20T11:11:42;13.16;81.63
75685;HTU21D;64298;46.050;38.164;2022-11-20T11:14:11;13.40;81.21
75685;HTU21D;64298;46.050;38.164;2022-11-20T11:16:53;13.63;80.88
75685;HTU21D;64298;46.050;38.164;2022-11-20T11:19:20;13.77;80.49
75685;HTU21D;64298;46.050;38.164;2022-11-20T11:21:54;13.88;80.32
75685;HTU21D;64298;46.050;38.164;2022-11-20T11:24:52;13.94;80.20
75685;HTU21D;64298;46.050;38.164;2022-11-20T11:27:18;14.03;79.96
75685;HTU21D;64298;46.050;38.164;2022-11-20T11:29:45;14.00;79.88
75685;HTU21D;64298;46.050;38.164;2022-11-20T11:32:14;14.00;79.98
75685;HTU21D;64298;46.050;38.164;2022-11-20T11:34:40;13.97;80.00
75685;HTU21D;64298;46.050;38.164;2022-11-20T11:37:20;13.95;80.29
75685;HTU21D;64298;46.050;38.164;2022-11-20T11:39:50;13.99;80.12
75685;HTU21D;64298;46.050;38.164;2022-11-20T11:42:17;14.00;80.11
75685;HTU21D;64298;46.050;38.164;2022-11-20T11:44:45;13.99;80.19
75685;HTU21D;64298;46.050;38.164;2022-11-20T11:47:33;13.93;80.31
75685;HTU21D;64298;46.050;38.164;2022-11-20T11:50:17;13.85;80.49
75685;HTU21D;64298;46.050;38.164;2022-11-20T11:52:59;13.78;80.74
75685;HTU21D;64298;46.050;38.164;2022-11-20T12:04:36;13.90;80.92
75685;HTU21D;64298;46.050;38.164;2022-11-20T12:07:18;13.98;80.73
75685;HTU21D;64298;46.050;38.164;2022-11-20T12:09:49;13.98;80.76
75685;HTU21D;64298;46.050;38.164;2022-11-20T12:12:22;13.98;80.88
75685;HTU21D;64298;46.050;38.164;2022-11-20T12:14:53;13.96;80.99
75685;HTU21D;64298;46.050;38.164;2022-11-20T12:17:20;13.94;81.13
75685;HTU21D;64298;46.050;38.164;2022-11-20T12:19:46;13.92;81.24
75685;HTU21D;64298;46.050;38.164;2022-11-20T12:25:01;13.91;81.45
75685;HTU21D;64298;46.050;38.164;2022-11-20T12:30:23;13.86;81.64
75685;HTU21D;64298;46.050;38.164;2022-11-20T12:45:34;13.84;82.04
75685;HTU21D;64298;46.050;38.164;2022-11-20T12:48:26;13.84;82.17
75685;HTU21D;64298;46.050;38.164;2022-11-20T12:51:11;13.85;82.12
75685;HTU21D;64298;46.050;38.164;2022-11-20T12:53:54;13.88;82.11
75685;HTU21D;64298;46.050;38.164;2022-11-20T12:56:50;13.88;82.21
75685;HTU21D;64298;46.050;38.164;2022-11-20T13:02:27;13.82;82.38
75685;HTU21D;64298;46.050;38.164;2022-11-20T13:07:40;13.74;82.60
75685;HTU21D;64298;46.050;38.164;2022-11-20T13:10:37;13.68;82.75
75685;HTU21D;64298;46.050;38.164;2022-11-20T13:15:58;13.60;82.96
75685;HTU21D;64298;46.050;38.164;2022-11-20T13:18:37;13.58;83.00
75685;HTU21D;64298;46.050;38.164;2022-11-20T13:21:22;13.54;83.14
75685;HTU21D;64298;46.050;38.164;2022-11-20T13:24:18;13.55;83.15
75685;HTU21D;64298;46.050;38.164;2022-11-20T13:27:18;13.52;83.18
75685;HTU21D;64298;46.050;38.164;2022-11-20T13:29:58;13.50;83.23
75685;HTU21D;64298;46.050;38.164;2022-11-20T13:32:26;13.46;83.32
75685;HTU21D;64298;46.050;38.164;2022-11-20T13:35:54;13.44;83.48
75685;HTU21D;64298;46.050;38.164;2022-11-20T13:38:12;13.39;83.56
75685;HTU21D;64298;46.050;38.164;2022-11-20T13:40:51;13.36;83.80
75685;HTU21D;64298;46.050;38.164;2022-11-20T13:46:04;13.32;83.85
75685;HTU21D;64298;46.050;38.164;2022-11-20T13:48:39;13.30;83.97
75685;HTU21D;64298;46.050;38.164;2022-11-20T14:02:13;13.20;84.32
75685;HTU21D;64298;46.050;38.164;2022-11-20T14:04:44;13.19;84.38
75685;HTU21D;64298;46.050;38.164;2022-11-20T14:07:40;13.18;84.47
75685;HTU21D;64298;46.050;38.164;2022-11-20T14:10:26;13.16;84.53
75685;HTU21D;64298;46.050;38.164;2022-11-20T14:12:53;13.16;84.50
75685;HTU21D;64298;46.050;38.164;2022-11-20T14:15:34;13.15;84.62
75685;HTU21D;64298;46.050;38.164;2022-11-20T14:18:14;13.16;84.64
75685;HTU21D;64298;46.050;38.164;2022-11-20T14:20:41;13.15;84.70
75685;HTU21D;64298;46.050;38.164;2022-11-20T14:23:10;13.14;84.79
75685;HTU21D;64298;46.050;38.164;2022-11-20T14:25:37;13.15;84.79
75685;HTU21D;64298;46.050;38.164;2022-11-20T14:28:12;13.15;84.87
75685;HTU21D;64298;46.050;38.164;2022-11-20T14:30:47;13.16;84.97
75685;HTU21D;64298;46.050;38.164;2022-11-20T14:33:14;13.16;85.00
75685;HTU21D;64298;46.050;38.164;2022-11-20T14:35:45;13.17;85.02
75685;HTU21D;64298;46.050;38.164;2022-11-20T14:38:15;13.16;85.06
75685;HTU21D;64298;46.050;38.164;2022-11-20T14:40:41;13.18;85.03
75685;HTU21D;64298;46.050;38.164;2022-11-20T14:43:25;13.16;85.22
75685;HTU21D;64298;46.050;38.164;2022-11-20T14:45:58;13.17;85.17
75685;HTU21D;64298;46.050;38.164;2022-11-20T14:48:31;13.16;85.22
75685;HTU21D;64298;46.050;38.164;2022-11-20T14:50:58;13.17;85.29
75685;HTU21D;64298;46.050;38.164;2022-11-20T14:53:25;13.17;85.35
75685;HTU21D;64298;46.050;38.164;2022-11-20T14:55:56;13.16;85.35
75685;HTU21D;64298;46.050;38.164;2022-11-20T14:58:28;13.16;85.42
75685;HTU21D;64298;46.050;38.164;2022-11-20T15:01:06;13.16;85.47
75685;HTU21D;64298;46.050;38.164;2022-11-20T15:04:06;13.18;85.44
75685;HTU21D;64298;46.050;38.164;2022-11-20T15:06:33;13.17;85.57
75685;HTU21D;64298;46.050;38.164;2022-11-20T15:08:59;13.17;85.61
75685;HTU21D;64298;46.050;38.164;2022-11-20T15:11:31;13.18;85.64
75685;HTU21D;64298;46.050;38.164;2022-11-20T15:13:58;13.19;85.68
75685;HTU21D;64298;46.050;38.164;2022-11-20T15:16:28;13.21;85.62
75685;HTU21D;64298;46.050;38.164;2022-11-20T15:18:54;13.22;85.69
75685;HTU21D;64298;46.050;38.164;2022-11-20T15:21:21;13.23;85.66
75685;HTU21D;64298;46.050;38.164;2022-11-20T15:23:47;13.24;85.66
75685;HTU21D;64298;46.050;38.164;2022-11-20T15:26:20;13.25;85.71
75685;HTU21D;64298;46.050;38.164;2022-11-20T15:28:47;13.26;85.76
75685;HTU21D;64298;46.050;38.164;2022-11-20T15:31:19;13.29;85.77
75685;HTU21D;64298;46.050;38.164;2022-11-20T15:33:45;13.30;85.73
75685;HTU21D;64298;46.050;38.164;2022-11-20T15:36:11;13.31;85.73
75685;HTU21D;64298;46.050;38.164;2022-11-20T15:38:38;13.32;85.74
75685;HTU21D;64298;46.050;38.164;2022-11-20T15:41:05;13.34;85.75
75685;HTU21D;64298;46.050;38.164;2022-11-20T15:43:31;13.34;85.74
75685;HTU21D;64298;46.050;38.164;2022-11-20T15:46:01;13.35;85.74
75685;HTU21D;64298;46.050;38.164;2022-11-20T15:48:31;13.37;85.71
75685;HTU21D;64298;46.050;38.164;2022-11-20T15:51:35;13.36;85.76
75685;HTU21D;64298;46.050;38.164;2022-11-20T15:54:10;13.34;85.76
75685;HTU21D;64298;46.050;38.164;2022-11-20T15:56:36;13.34;85.74
75685;HTU21D;64298;46.050;38.164;2022-11-20T15:59:03;13.34;85.80
75685;HTU21D;64298;46.050;38.164;2022-11-20T16:01:29;13.35;85.79
75685;HTU21D;64298;46.050;38.164;2022-11-20T16:03:55;13.36;85.83
75685;HTU21D;64298;46.050;38.164;2022-11-20T16:06:21;13.37;85.83
75685;HTU21D;64298;46.050;38.164;2022-11-20T16:08:47;13.39;85.80
75685;HTU21D;64298;46.050;38.164;2022-11-20T16:11:15;13.40;85.78
75685;HTU21D;64298;46.050;38.164;2022-11-20T16:13:41;13.41;85.77
75685;HTU21D;64298;46.050;38.164;2022-11-20T16:16:29;13.44;85.76
75685;HTU21D;64298;46.050;38.164;2022-11-20T16:18:57;13.44;85.73
75685;HTU21D;64298;46.050;38.164;2022-11-20T16:21:23;13.44;85.77
75685;HTU21D;64298;46.050;38.164;2022-11-20T16:24:16;13.47;85.82
75685;HTU21D;64298;46.050;38.164;2022-11-20T16:26:42;13.48;85.80
75685;HTU21D;64298;46.050;38.164;2022-11-20T16:29:09;13.49;85.79
75685;HTU21D;64298;46.050;38.164;2022-11-20T16:31:35;13.51;85.77
75685;HTU21D;64298;46.050;38.164;2022-11-20T16:34:04;13.53;85.74
75685;HTU21D;64298;46.050;38.164;2022-11-20T16:36:30;13.54;85.67
75685;HTU21D;64298;46.050;38.164;2022-11-20T16:39:01;13.58;85.65
75685;HTU21D;64298;46.050;38.164;2022-11-20T16:41:31;13.59;85.58
75685;HTU21D;64298;46.050;38.164;2022-11-20T16:44:00;13.62;85.54
75685;HTU21D;64298;46.050;38.164;2022-11-20T16:46:31;13.61;85.51
75685;HTU21D;64298;46.050;38.164;2022-11-20T16:49:10;13.64;85.45
75685;HTU21D;64298;46.050;38.164;2022-11-20T16:51:37;13.65;85.40
75685;HTU21D;64298;46.050;38.164;2022-11-20T16:54:07;13.65;85.39
75685;HTU21D;64298;46.050;38.164;2022-11-20T16:56:33;13.67;85.35